Home PIREPS Pireps

Flight BEL733

  • Submitted By: Serge Morabito
  • Departure Airport: Denver International Airport (KDEN)
  • Arrival Airport: Flughafen Wien-Schwechat (LOWW)
  • Aircraft: B777-300 (OO-YLK)
  • Flight Time: 10.12
  • Date Submitted: 06/05/2017
  • Route: CHICI DCT RWF/N0495F350 DCT IWD DCT YXZ DCT NM DCT OMTOL DCT UAC DCT NEEKO/M088F410 NATQ GOMUP NATQ GINGA DCT GOW L983 SAB UM982 TOPPA DCT SPY DCT MAPOX DCT DEXIT DCT ADLET DCT MASUR
  • Status: Accepted
Flight Details
Gross Revenue:
(440 load / € 0.00 per unit
€ 0.00
Fuel Cost:
(119755 fuel used @ 0 / unit)
€ 0.00

Additional Log Information:

View Log

Aircraft Used in flight is B777 (v.198) Ext 300 - Austrian Airlines
11:06 Brakes are On
11:17 Brakes are Released
11:18 Brakes are On
11:18 Brakes are Released
11:18 Brakes are On
11:18 Brakes are Released
11:19 Brakes are On
11:19 Brakes are Released
11:20 Brakes are On
11:20 Brakes are Released
11:27 Brakes are On
11:27 Brakes are Released
11:27 Brakes are On
11:27 Brakes are Released
11:27 Brakes are On
11:27 Brakes are Released
11:27 Brakes are On
11:27 Brakes are Released
11:28 Brakes are On
11:28 Brakes are Released
11:28 Brakes are On
11:28 Brakes are Released
11:31 You Took off @ 182 Knots and Flaps at Position 5
Departure Weather
KDEN 060853Z 16009KT 10SM CLR 10/04 A2998 RMK AO2 SLP089 T01000039 58007 $rn
11:31 Landing Gear Up @ 200 Knots and 5370 Feet
11:33 Above FL100 you need to switch of the landing lights
20:56 Below 10000 feet you are not allowed to go over 250 knots
21:04 Landing Gear Down @ 162 Knots and 4750 Feet
21:09 You Landed @ 136 Knots and with -400 Vertical Speed
Arrival Weather
LOWW 061850Z 11005KT 090V150 CAVOK 17/09 Q1007 NOSIGrn
21:10 Brakes are On
21:10 Brakes are Released
21:10 Brakes are On
21:10 Brakes are Released
21:10 Brakes are On
21:10 Brakes are Released
21:11 Brakes are On
21:11 Brakes are Released
21:12 Brakes are On
21:12 Brakes are Released
21:12 Brakes are On
21:12 Brakes are Released
21:12 Brakes are On
21:18 Brussels Bel-Track1.0.1.2

Route Map

Corporate About Us Our Team Vacancies Information Fleet Route Network Rules and Regulations Operations Flight Schedules Event Center Tours Partners IVAO Vatsim Acars dev FSCB

fb Users Online Belgium John Smits,
1 Pilot(s) and 93 Guest(s) Online
CMS by phpVMS - Design by Crazycreatives.com - Copyright © 2019 - Brussels Airlines Virtual